Strona główna
METAR-TAF:

METAR-TAF

Lotnisko :

Winner, Dakota Południowa, Stany Zjednoczone

Szerokość geograficzna: 43-23-26N, Długość geograficzna: 099-50-33W, wysokość: 619 m

Aktualna obserwacja pogody

Raport powstał 42 minut temu, godzina 08:53 UTC
Wiatr 12 kt od południe w porywach dochodzący do 22 kt
Temperatura 24°C
Wilgotność 61%
Ciśnienie 1003 hPa
Widzialność: 16.1 km
bezchmurnie

METAR: KICR 070853Z AUTO 17012G22KT 10SM CLR 24/16 A2961 RMK AO2 SLP005 T02440161 58010 $

czas: 04:35 (09:35 UTC)


TAF: brakujący

Obserwacja i prognoza pogody dla ponad 4000 lotnisk (raport METAR i TAF).

Dostępne stacje oznaczono żółtymi i czerwonymi punktami na mapie.

Najedź kursorem aby zobaczyć nazwę stacji.

Kliknij aby zobaczyć obserwacje i prognozy pogody.

Aby zmienić mapę: kliknij na zielony przycisk z czarnym krzyżykiem, aby powiększyć; na zielony przycisk z myślnikiem, aby pomniejszyć; na zielone strzałki, aby przejść do map sąsiednich.


METAR-TAF: